Time;durP1;ratioP1;P1;durP2;ratioP2;P2;SDS_P1;SDS_P2;PMS_P1;PMS_P2;Temp;Humidity;BMP_temperature;BMP_pressure;BME280_temperature;BME280_humidity;BME280_pressure;Samples;Min_cycle;Max_cycle;Signal;HPM_P1;HPM_P2
2022/09/01 00:01:19;;;;;;;8.80;4.22;;;15.90;99.90;;;;;;5079507;28;20033;-95
2022/09/01 00:03:48;;;;;;;10.65;4.63;;;15.80;99.90;;;;;;5086174;28;20079;-93
2022/09/01 00:06:22;;;;;;;10.57;4.97;;;15.80;99.90;;;;;;5080584;28;20024;-94
2022/09/01 00:08:56;;;;;;;15.70;4.38;;;15.80;99.90;;;;;;5076444;28;20036;-94
2022/09/01 00:11:23;;;;;;;10.77;4.13;;;15.80;99.90;;;;;;5075289;28;20033;-95
2022/09/01 00:13:50;;;;;;;12.52;4.40;;;15.80;99.90;;;;;;5078993;28;20035;-95
2022/09/01 00:16:18;;;;;;;10.57;3.80;;;15.80;99.90;;;;;;5077054;28;20043;-93
2022/09/01 00:18:48;;;;;;;9.95;3.63;;;15.80;99.90;;;;;;5075503;28;20051;-95
2022/09/01 00:21:16;;;;;;;12.02;3.72;;;15.80;99.90;;;;;;5074146;28;20111;-92
2022/09/01 00:23:42;;;;;;;7.97;3.53;;;15.80;99.90;;;;;;5080093;28;20047;-94
2022/09/01 00:26:07;;;;;;;16.33;4.05;;;15.90;99.90;;;;;;5082935;28;20401;-94
2022/09/01 00:28:37;;;;;;;9.55;3.22;;;15.80;99.90;;;;;;5084100;28;20031;-93
2022/09/01 00:31:05;;;;;;;8.63;4.28;;;15.80;99.90;;;;;;5083813;28;20024;-94
2022/09/01 00:33:31;;;;;;;9.13;3.85;;;15.80;99.90;;;;;;5086897;28;20056;-94
2022/09/01 00:35:57;;;;;;;15.52;5.07;;;15.80;99.90;;;;;;5087076;28;20033;-95
2022/09/01 00:38:23;;;;;;;7.82;4.35;;;15.70;99.90;;;;;;5077417;28;20040;-94
2022/09/01 00:40:49;;;;;;;9.90;4.78;;;15.70;99.90;;;;;;5080909;28;20465;-95
2022/09/01 00:43:35;;;;;;;16.00;4.85;;;15.70;99.90;;;;;;5090114;28;20036;-93
2022/09/01 00:46:06;;;;;;;10.43;4.53;;;15.70;99.90;;;;;;5075496;28;20013;-93
2022/09/01 00:48:32;;;;;;;11.60;5.20;;;15.70;99.90;;;;;;5080501;28;20023;-94
2022/09/01 00:50:59;;;;;;;9.65;5.30;;;15.70;99.90;;;;;;5078087;28;20089;-94
2022/09/01 00:53:25;;;;;;;11.25;4.90;;;15.70;99.90;;;;;;5076301;28;20031;-94
2022/09/01 00:55:51;;;;;;;9.15;5.00;;;15.60;99.90;;;;;;5072807;28;20047;-93
2022/09/01 00:58:16;;;;;;;9.75;4.13;;;15.60;99.90;;;;;;5078587;28;20016;-93
2022/09/01 01:00:48;;;;;;;10.98;5.18;;;15.50;99.90;;;;;;5079541;28;20044;-93
2022/09/01 01:03:14;;;;;;;10.68;4.60;;;15.50;99.90;;;;;;5088447;28;20013;-91
2022/09/01 01:05:56;;;;;;;8.43;5.07;;;15.50;99.90;;;;;;5081032;28;20056;-91
2022/09/01 01:08:33;;;;;;;16.13;4.30;;;15.50;99.90;;;;;;5065899;28;20021;-92
2022/09/01 01:11:02;;;;;;;11.27;4.13;;;15.50;99.90;;;;;;5067139;28;20025;-93
2022/09/01 01:13:30;;;;;;;13.77;3.97;;;15.50;99.90;;;;;;5066307;28;20016;-93
2022/09/01 01:15:58;;;;;;;10.30;4.05;;;15.50;99.90;;;;;;5065581;28;20032;-92
2022/09/01 01:18:24;;;;;;;11.82;4.43;;;15.50;99.90;;;;;;5069528;28;20020;-92
2022/09/01 01:24:34;;;;;;;11.57;6.00;;;15.50;99.90;;;;;;5089670;28;20421;-92
2022/09/01 01:27:00;;;;;;;15.52;5.88;;;15.50;99.90;;;;;;5068898;28;20092;-94
2022/09/01 01:29:31;;;;;;;12.43;6.40;;;15.50;99.90;;;;;;5074373;28;20060;-93
2022/09/01 01:31:56;;;;;;;;;;;15.40;99.90;;;;;;5072117;28;20024;-93
2022/09/01 01:34:25;;;;;;;16.30;7.13;;;15.40;99.90;;;;;;5071471;28;19905;-93
2022/09/01 01:36:51;;;;;;;14.05;6.80;;;15.40;99.90;;;;;;5071433;28;20043;-94
2022/09/01 01:39:21;;;;;;;14.68;6.63;;;15.30;99.90;;;;;;5070617;28;20025;-94
2022/09/01 01:41:48;;;;;;;14.90;8.02;;;15.30;99.90;;;;;;5069232;28;20103;-94
2022/09/01 01:44:17;;;;;;;21.00;7.72;;;15.30;99.90;;;;;;5074238;28;20031;-94
2022/09/01 01:46:47;;;;;;;18.65;8.30;;;15.30;99.90;;;;;;5074317;28;20016;-93
2022/09/01 01:49:17;;;;;;;16.13;6.80;;;15.30;99.90;;;;;;5074545;28;20571;-92
2022/09/01 01:51:44;;;;;;;13.00;7.63;;;15.30;99.90;;;;;;5069986;28;20123;-93
2022/09/01 01:54:11;;;;;;;15.52;7.82;;;15.30;99.90;;;;;;5073127;28;20163;-94
2022/09/01 01:56:38;;;;;;;10.02;6.30;;;15.30;99.90;;;;;;5080180;28;20040;-92
2022/09/01 01:59:06;;;;;;;15.13;7.80;;;15.30;99.90;;;;;;5087957;28;20032;-93
2022/09/01 02:01:32;;;;;;;9.32;6.80;;;15.30;99.90;;;;;;5075815;28;20088;-94
2022/09/01 02:03:59;;;;;;;9.38;6.18;;;15.20;99.90;;;;;;5073397;28;20063;-94
2022/09/01 02:06:26;;;;;;;17.35;8.25;;;15.20;99.90;;;;;;5080660;28;20009;-91
2022/09/01 02:09:01;;;;;;;14.20;7.78;;;15.20;99.90;;;;;;5116001;28;20032;-90
2022/09/01 02:11:28;;;;;;;10.68;6.57;;;15.20;99.90;;;;;;5087399;28;20092;-94
2022/09/01 02:13:56;;;;;;;12.27;7.30;;;15.20;99.90;;;;;;5073854;28;20033;-93
2022/09/01 02:16:27;;;;;;;13.07;8.05;;;15.20;99.90;;;;;;5077124;28;20028;-94
2022/09/01 02:18:53;;;;;;;11.57;7.88;;;15.20;99.90;;;;;;5072501;28;20029;-94
2022/09/01 02:21:21;;;;;;;14.30;7.25;;;15.20;99.90;;;;;;5070599;28;20020;-94
2022/09/01 02:23:58;;;;;;;14.00;8.30;;;15.20;99.90;;;;;;5077740;28;20031;-93
2022/09/01 02:26:28;;;;;;;12.02;7.15;;;15.20;99.90;;;;;;5076077;28;20026;-95
2022/09/01 02:28:54;;;;;;;10.75;6.10;;;15.20;99.90;;;;;;5076956;28;20024;-93
2022/09/01 02:31:21;;;;;;;15.60;5.40;;;15.20;99.90;;;;;;5077768;28;20102;-94
2022/09/01 02:33:47;;;;;;;12.55;7.13;;;15.20;99.90;;;;;;5078015;28;20031;-91
2022/09/01 02:36:16;;;;;;;14.10;6.53;;;15.20;99.90;;;;;;5073329;28;20032;-95
2022/09/01 02:38:44;;;;;;;13.35;6.80;;;15.20;99.90;;;;;;5072408;28;20071;-95
2022/09/01 02:41:13;;;;;;;11.95;7.20;;;15.10;99.90;;;;;;5070653;28;20083;-93
2022/09/01 02:43:39;;;;;;;17.80;7.30;;;15.10;99.90;;;;;;5079654;28;20036;-96
2022/09/01 02:46:05;;;;;;;14.98;7.32;;;15.10;99.90;;;;;;5069070;28;20020;-94
2022/09/01 02:48:37;;;;;;;17.17;7.15;;;15.10;99.90;;;;;;5070753;28;20052;-96
2022/09/01 02:51:08;;;;;;;13.82;7.47;;;15.10;99.90;;;;;;5069622;28;20021;-95
2022/09/01 02:53:35;;;;;;;16.13;8.13;;;15.00;99.90;;;;;;5098961;28;20020;-94
2022/09/01 02:56:08;;;;;;;14.45;8.00;;;15.00;99.90;;;;;;5070917;28;20034;-93
2022/09/01 02:58:39;;;;;;;18.83;8.10;;;15.00;99.90;;;;;;5066092;28;20034;-94
2022/09/01 03:01:23;;;;;;;12.50;7.93;;;15.00;99.90;;;;;;5071503;28;20082;-95
2022/09/01 03:03:51;;;;;;;15.70;8.73;;;15.00;99.90;;;;;;5071762;28;20021;-94
2022/09/01 03:06:19;;;;;;;18.92;8.18;;;15.00;99.90;;;;;;5076643;28;20024;-93
2022/09/01 03:08:47;;;;;;;12.57;7.20;;;14.90;99.90;;;;;;5076248;28;20012;-95
2022/09/01 03:11:13;;;;;;;13.60;7.32;;;14.90;99.90;;;;;;5084022;28;20031;-91
2022/09/01 03:13:40;;;;;;;13.15;6.80;;;14.90;99.90;;;;;;5078338;28;20031;-92
2022/09/01 03:16:07;;;;;;;13.32;7.38;;;14.90;99.90;;;;;;5062411;28;20560;-94
2022/09/01 03:18:34;;;;;;;11.00;6.70;;;14.90;99.90;;;;;;5063317;28;20021;-94
2022/09/01 03:21:01;;;;;;;16.42;6.68;;;14.90;99.90;;;;;;5073512;28;20025;-93
2022/09/01 03:23:28;;;;;;;16.55;6.82;;;14.90;99.90;;;;;;5066876;28;20083;-94
2022/09/01 03:25:54;;;;;;;14.32;6.28;;;14.90;99.90;;;;;;5061119;28;20025;-95
2022/09/01 03:28:20;;;;;;;11.43;6.65;;;14.80;99.90;;;;;;5062916;28;20036;-94
2022/09/01 03:30:51;;;;;;;13.98;7.13;;;14.80;99.90;;;;;;5061147;28;20523;-93
2022/09/01 03:33:18;;;;;;;;;;;14.80;99.90;;;;;;5065103;28;20112;-94
2022/09/01 03:35:45;;;;;;;13.63;6.25;;;14.80;99.90;;;;;;5063163;28;19955;-93
2022/09/01 03:38:23;;;;;;;11.73;6.85;;;14.70;99.90;;;;;;5059120;28;20028;-94
2022/09/01 03:41:00;;;;;;;10.25;5.05;;;14.80;99.90;;;;;;5060063;28;20032;-93
2022/09/01 03:43:28;;;;;;;10.35;5.60;;;14.80;99.90;;;;;;5061093;28;20044;-94
2022/09/01 03:45:58;;;;;;;10.98;6.00;;;14.70;99.90;;;;;;5058922;28;20020;-94
2022/09/01 03:48:27;;;;;;;19.73;6.60;;;14.70;99.90;;;;;;5059413;28;20025;-94
2022/09/01 03:50:56;;;;;;;10.05;6.07;;;14.70;99.90;;;;;;5075512;28;20116;-93
2022/09/01 03:53:26;;;;;;;13.85;6.65;;;14.80;99.90;;;;;;5062103;28;20039;-96
2022/09/01 03:55:53;;;;;;;13.48;7.03;;;14.70;99.90;;;;;;5061052;28;20029;-94
2022/09/01 03:58:19;;;;;;;15.93;8.13;;;14.70;99.90;;;;;;5059270;28;20044;-95
2022/09/01 04:00:59;;;;;;;18.33;8.05;;;14.70;99.90;;;;;;5062703;28;20028;-94
2022/09/01 04:03:30;;;;;;;14.00;7.82;;;14.60;99.90;;;;;;5061808;28;20028;-94
2022/09/01 04:05:57;;;;;;;10.63;6.65;;;14.60;99.90;;;;;;5059569;28;20031;-94
2022/09/01 04:08:29;;;;;;;13.73;5.20;;;14.60;99.90;;;;;;5059876;28;20040;-95
2022/09/01 04:10:57;;;;;;;14.00;6.78;;;14.60;99.90;;;;;;5057026;28;20033;-94
2022/09/01 04:13:34;;;;;;;11.35;6.15;;;14.60;99.90;;;;;;5057159;28;20466;-94
2022/09/01 04:16:00;;;;;;;12.10;6.10;;;14.60;99.90;;;;;;5060308;28;20036;-93
2022/09/01 04:18:26;;;;;;;16.90;6.60;;;14.70;99.90;;;;;;5057821;28;20028;-92
2022/09/01 04:20:58;;;;;;;12.27;6.18;;;14.70;99.90;;;;;;5057048;28;20031;-94
2022/09/01 04:23:28;;;;;;;12.70;6.70;;;14.60;99.90;;;;;;5057550;28;20028;-94
2022/09/01 04:26:07;;;;;;;14.27;6.70;;;14.60;99.90;;;;;;5056701;28;20024;-93
2022/09/01 04:28:37;;;;;;;15.32;8.32;;;14.60;99.90;;;;;;5056099;28;20504;-92
2022/09/01 04:31:08;;;;;;;15.23;8.10;;;14.60;99.90;;;;;;5058997;28;20025;-95
2022/09/01 04:33:38;;;;;;;13.68;7.82;;;14.60;99.90;;;;;;5055874;28;20270;-93
2022/09/01 04:36:18;;;;;;;12.00;6.68;;;14.60;99.90;;;;;;5058610;28;20620;-93
2022/09/01 04:38:45;;;;;;;13.27;8.52;;;14.60;99.90;;;;;;5056383;28;20024;-92
2022/09/01 04:41:16;;;;;;;19.08;7.93;;;14.60;99.90;;;;;;5069620;28;20024;-89
2022/09/01 04:43:46;;;;;;;14.65;8.25;;;14.60;99.90;;;;;;5051862;28;20079;-93
2022/09/01 04:46:15;;;;;;;16.23;8.75;;;14.60;99.90;;;;;;5044524;28;20437;-94
2022/09/01 04:48:44;;;;;;;13.25;8.68;;;14.60;99.90;;;;;;5040002;28;20029;-93
2022/09/01 04:51:11;;;;;;;19.17;10.48;;;14.60;99.90;;;;;;5041554;28;20116;-93
2022/09/01 04:53:39;;;;;;;13.93;9.45;;;14.60;99.90;;;;;;5042069;28;20052;-93
2022/09/01 04:56:08;;;;;;;13.48;8.45;;;14.60;99.90;;;;;;5041449;28;20257;-93
2022/09/01 04:58:35;;;;;;;16.83;8.60;;;14.60;99.90;;;;;;5040720;28;20025;-94
2022/09/01 05:01:12;;;;;;;15.30;8.85;;;14.60;99.90;;;;;;5041515;28;20474;-94
2022/09/01 05:03:38;;;;;;;13.27;8.48;;;14.60;99.90;;;;;;5045381;28;20049;-94
2022/09/01 05:06:04;;;;;;;13.15;9.25;;;14.60;99.90;;;;;;5043369;28;20028;-94
2022/09/01 05:08:33;;;;;;;18.55;11.20;;;14.60;99.90;;;;;;5042178;28;20029;-94
2022/09/01 05:11:06;;;;;;;14.43;9.02;;;14.60;99.90;;;;;;5042233;28;20049;-93
2022/09/01 05:13:33;;;;;;;16.40;10.38;;;14.60;99.90;;;;;;5045200;28;20401;-92
2022/09/01 05:16:11;;;;;;;14.05;10.57;;;14.60;99.90;;;;;;5046358;28;20047;-92
2022/09/01 05:18:39;;;;;;;16.58;10.02;;;14.60;99.90;;;;;;5058123;28;20017;-89
2022/09/01 05:21:10;;;;;;;18.58;12.13;;;14.50;99.90;;;;;;5062848;28;20029;-92
2022/09/01 05:23:39;;;;;;;14.07;10.32;;;14.50;99.90;;;;;;5061578;28;20041;-90
2022/09/01 05:26:13;;;;;;;24.70;11.50;;;14.50;99.90;;;;;;5059411;28;20088;-91
2022/09/01 05:28:40;;;;;;;22.05;12.13;;;14.50;99.90;;;;;;5054767;28;20040;-93
2022/09/01 05:31:06;;;;;;;16.30;12.32;;;14.50;99.90;;;;;;5055898;28;20036;-90
2022/09/01 05:33:35;;;;;;;23.33;11.43;;;14.50;99.90;;;;;;5055766;28;20064;-93
2022/09/01 05:36:07;;;;;;;18.88;11.18;;;14.40;99.90;;;;;;5053382;28;20053;-94
2022/09/01 05:38:33;;;;;;;19.90;10.82;;;14.50;99.90;;;;;;5047572;28;20067;-94
2022/09/01 05:41:02;;;;;;;18.98;10.25;;;14.40;99.90;;;;;;5041765;28;20025;-94
2022/09/01 05:43:30;;;;;;;16.38;10.02;;;14.50;99.90;;;;;;5056223;28;20052;-94
2022/09/01 05:46:03;;;;;;;22.38;13.18;;;14.40;99.90;;;;;;5079567;28;20052;-93
2022/09/01 05:48:38;;;;;;;19.42;11.07;;;14.50;99.90;;;;;;5060687;28;20108;-93
2022/09/01 05:51:06;;;;;;;15.57;10.80;;;14.40;99.90;;;;;;5061367;28;20028;-94
2022/09/01 05:53:32;;;;;;;21.02;10.63;;;14.40;99.90;;;;;;5061258;28;20031;-94
2022/09/01 05:56:05;;;;;;;18.08;9.48;;;14.40;99.90;;;;;;5059995;28;20040;-93
2022/09/01 05:58:33;;;;;;;15.85;9.75;;;14.50;99.90;;;;;;5059867;28;20088;-94
2022/09/01 06:00:59;;;;;;;13.93;9.10;;;14.50;99.90;;;;;;5079202;28;20024;-93
2022/09/01 06:03:26;;;;;;;17.67;10.38;;;14.50;99.90;;;;;;5063071;28;20043;-93
2022/09/01 06:05:54;;;;;;;27.40;11.88;;;14.50;99.90;;;;;;5069350;28;20029;-93
2022/09/01 06:08:23;;;;;;;17.95;10.48;;;14.50;99.90;;;;;;5060633;28;20028;-92
2022/09/01 06:10:50;;;;;;;21.05;10.10;;;14.50;99.90;;;;;;5061292;28;20079;-94
2022/09/01 06:13:20;;;;;;;18.85;9.85;;;14.40;99.90;;;;;;5060634;28;20039;-93
2022/09/01 06:15:52;;;;;;;20.00;10.80;;;14.50;99.90;;;;;;5062349;28;20032;-93
2022/09/01 06:18:20;;;;;;;15.32;9.25;;;14.50;99.90;;;;;;5078753;28;20016;-92
2022/09/01 06:20:46;;;;;;;20.38;10.68;;;14.50;99.90;;;;;;5062576;28;20508;-95
2022/09/01 06:23:15;;;;;;;17.42;9.80;;;14.50;99.90;;;;;;5063026;28;20025;-94
2022/09/01 06:25:45;;;;;;;18.08;11.27;;;14.50;99.90;;;;;;5061939;28;20184;-94
2022/09/01 06:28:13;;;;;;;17.52;9.88;;;14.60;99.90;;;;;;5061338;28;20036;-91
2022/09/01 06:30:41;;;;;;;16.83;8.95;;;14.60;99.90;;;;;;5065939;28;20020;-95
2022/09/01 06:33:08;;;;;;;14.18;8.65;;;14.50;99.90;;;;;;5060179;28;20100;-93
2022/09/01 06:35:35;;;;;;;12.18;7.43;;;14.60;99.90;;;;;;5060791;28;20033;-94
2022/09/01 06:38:03;;;;;;;12.13;7.63;;;14.50;99.90;;;;;;5059759;28;20027;-94
2022/09/01 06:40:29;;;;;;;14.60;7.78;;;14.50;99.90;;;;;;5063135;28;20039;-93
2022/09/01 06:42:55;;;;;;;13.13;8.10;;;14.50;99.90;;;;;;5063957;28;20036;-93
2022/09/01 06:45:23;;;;;;;15.73;8.18;;;14.50;99.90;;;;;;5062988;28;20039;-94
2022/09/01 06:47:52;;;;;;;14.38;6.80;;;14.50;99.90;;;;;;5060967;28;20013;-93
2022/09/01 06:50:22;;;;;;;11.80;6.80;;;14.50;99.90;;;;;;5061882;28;20035;-94
2022/09/01 06:52:49;;;;;;;11.93;6.47;;;14.40;99.90;;;;;;5060905;28;20024;-94
2022/09/01 06:55:16;;;;;;;14.77;6.97;;;14.50;99.90;;;;;;5064310;28;20098;-94
2022/09/01 06:57:53;;;;;;;10.60;6.07;;;14.50;99.90;;;;;;5059660;28;20032;-94
2022/09/01 07:00:19;;;;;;;15.60;6.15;;;14.50;99.90;;;;;;5061431;28;20356;-93
2022/09/01 07:02:53;;;;;;;13.43;6.00;;;14.50;99.90;;;;;;5061048;28;20082;-94
2022/09/01 07:05:20;;;;;;;10.95;6.03;;;14.60;99.90;;;;;;5081247;28;20111;-93
2022/09/01 07:07:53;;;;;;;10.40;6.22;;;14.60;99.90;;;;;;5059690;28;20546;-94
2022/09/01 07:10:26;;;;;;;10.88;6.50;;;14.60;99.90;;;;;;5061544;28;20028;-93
2022/09/01 07:12:54;;;;;;;12.63;7.20;;;14.70;99.90;;;;;;5062597;28;20029;-94
2022/09/01 07:15:21;;;;;;;13.48;7.40;;;14.70;99.90;;;;;;5070653;28;20025;-92
2022/09/01 07:17:52;;;;;;;12.52;7.93;;;14.80;99.90;;;;;;5076534;28;20036;-95
2022/09/01 07:20:21;;;;;;;10.80;7.22;;;14.90;99.90;;;;;;5090279;28;20020;-94
2022/09/01 07:22:47;;;;;;;17.88;8.32;;;14.90;99.90;;;;;;5078494;28;20119;-95
2022/09/01 07:25:14;;;;;;;11.63;7.75;;;15.00;99.90;;;;;;5074585;28;20369;-93
2022/09/01 07:27:49;;;;;;;13.05;7.25;;;15.00;99.90;;;;;;5072889;28;20039;-95
2022/09/01 07:30:20;;;;;;;13.30;6.72;;;15.10;99.90;;;;;;5085200;28;20472;-93
2022/09/01 07:32:47;;;;;;;12.85;6.30;;;15.20;99.90;;;;;;5075623;28;20043;-94
2022/09/01 07:35:15;;;;;;;12.73;6.70;;;15.20;99.90;;;;;;5066490;28;20036;-92
2022/09/01 07:37:41;;;;;;;11.15;6.68;;;15.30;99.90;;;;;;5069918;28;20024;-93
2022/09/01 07:40:10;;;;;;;14.75;6.80;;;15.30;99.90;;;;;;5067884;28;20043;-93
2022/09/01 07:42:39;;;;;;;8.90;6.40;;;15.40;99.90;;;;;;5070072;28;20404;-94
2022/09/01 07:45:10;;;;;;;18.50;5.60;;;15.40;99.90;;;;;;5065049;28;20069;-93
2022/09/01 07:47:36;;;;;;;9.45;5.75;;;15.50;99.90;;;;;;5073294;28;20024;-95
2022/09/01 07:50:07;;;;;;;8.93;4.72;;;15.60;99.90;;;;;;5066220;28;20042;-93
2022/09/01 07:52:41;;;;;;;7.88;4.13;;;15.60;99.90;;;;;;5063997;28;20085;-93
2022/09/01 07:55:16;;;;;;;10.68;4.97;;;15.60;99.90;;;;;;5065611;28;20031;-93
2022/09/01 07:57:44;;;;;;;12.00;3.60;;;15.60;99.90;;;;;;5064966;28;20477;-93
2022/09/01 08:00:15;;;;;;;7.95;4.00;;;15.70;99.90;;;;;;5064416;28;20024;-94
2022/09/01 08:02:43;;;;;;;8.05;3.33;;;15.80;99.90;;;;;;5065191;28;20048;-94
2022/09/01 08:05:16;;;;;;;6.80;3.00;;;15.80;99.90;;;;;;5066949;28;20024;-93
2022/09/01 08:11:05;;;;;;;7.10;2.20;;;16.00;99.90;;;;;;5135262;22;20074;-94
2022/09/01 08:13:37;;;;;;;4.75;2.15;;;16.10;99.90;;;;;;5103363;28;20433;-92
2022/09/01 08:16:07;;;;;;;7.35;2.20;;;16.20;99.90;;;;;;5095112;28;20446;-92
2022/09/01 08:18:32;;;;;;;6.87;2.00;;;16.20;99.90;;;;;;5080842;28;20073;-93
2022/09/01 08:20:58;;;;;;;7.03;2.55;;;16.30;99.90;;;;;;5095829;28;20282;-92
2022/09/01 08:23:26;;;;;;;11.60;2.85;;;16.30;99.90;;;;;;5096017;28;20145;-94
2022/09/01 08:25:52;;;;;;;6.82;1.95;;;16.40;99.90;;;;;;5098836;28;20011;-93
2022/09/01 08:28:19;;;;;;;6.07;2.00;;;16.40;99.90;;;;;;5099438;28;20115;-95
2022/09/01 08:30:48;;;;;;;11.93;1.92;;;16.50;99.90;;;;;;5100571;28;20110;-95
2022/09/01 08:33:14;;;;;;;5.57;1.90;;;16.60;99.90;;;;;;5101567;28;20078;-93
2022/09/01 08:35:42;;;;;;;7.53;2.20;;;16.70;99.90;;;;;;5103897;28;20040;-95
2022/09/01 08:38:08;;;;;;;9.57;1.90;;;16.90;99.90;;;;;;5116838;28;20020;-94
2022/09/01 08:40:35;;;;;;;7.60;2.28;;;17.00;99.90;;;;;;5120558;28;20036;-95
2022/09/01 08:43:18;;;;;;;10.85;1.85;;;17.20;99.90;;;;;;5104564;28;20016;-93
2022/09/01 08:45:54;;;;;;;7.63;2.05;;;17.40;99.90;;;;;;5100911;28;20085;-96
2022/09/01 08:48:38;;;;;;;4.93;1.33;;;17.60;99.90;;;;;;5120364;28;20101;-93
2022/09/01 08:51:18;;;;;;;5.80;1.33;;;17.60;99.90;;;;;;5104641;28;20024;-96
2022/09/01 08:54:10;;;;;;;;;;;17.80;99.90;;;;;;5123090;28;20457;-95
2022/09/01 08:56:37;;;;;;;11.65;1.42;;;17.80;99.90;;;;;;5099866;28;19934;-95
2022/09/01 08:59:08;;;;;;;4.28;1.90;;;18.00;99.90;;;;;;5107607;28;20020;-94
2022/09/01 09:01:50;;;;;;;4.75;1.70;;;18.10;99.90;;;;;;5112051;28;20035;-95
2022/09/01 09:04:46;;;;;;;3.88;1.30;;;18.20;99.90;;;;;;5103987;28;20483;-95
2022/09/01 09:07:28;;;;;;;5.45;1.38;;;18.40;99.90;;;;;;5104517;28;20032;-94
2022/09/01 09:10:20;;;;;;;3.75;1.10;;;18.50;99.90;;;;;;5108991;28;20055;-95
2022/09/01 09:13:12;;;;;;;7.50;1.40;;;18.60;99.90;;;;;;5103601;28;20019;-95
2022/09/01 09:15:45;;;;;;;4.32;1.10;;;18.70;99.90;;;;;;5106232;28;20476;-94
2022/09/01 09:18:32;;;;;;;5.32;1.75;;;18.80;99.50;;;;;;5111639;28;20058;-95
2022/09/01 09:21:21;;;;;;;4.70;1.15;;;18.90;98.10;;;;;;5123457;28;20023;-94
2022/09/01 09:23:55;;;;;;;8.57;1.40;;;19.00;97.60;;;;;;5087732;28;20074;-95
2022/09/01 09:26:21;;;;;;;3.70;1.10;;;19.10;96.80;;;;;;5100874;28;20273;-94
2022/09/01 09:28:48;;;;;;;4.38;1.15;;;19.30;96.60;;;;;;5099384;28;20023;-95
2022/09/01 09:31:47;;;;;;;6.82;1.35;;;19.40;96.20;;;;;;5099038;28;20411;-92
2022/09/01 09:34:29;;;;;;;3.88;1.13;;;19.60;95.20;;;;;;5084793;28;20126;-94
2022/09/01 09:36:54;;;;;;;6.78;1.40;;;19.50;94.40;;;;;;5102298;28;20028;-95
2022/09/01 09:39:20;;;;;;;6.90;1.20;;;19.50;94.50;;;;;;5107845;28;20024;-95
2022/09/01 09:42:13;;;;;;;3.28;0.90;;;19.50;93.90;;;;;;5104145;28;20366;-93
2022/09/01 09:44:51;;;;;;;5.72;1.10;;;19.40;93.60;;;;;;5095767;28;20119;-94
2022/09/01 09:47:41;;;;;;;5.57;1.30;;;19.40;93.20;;;;;;5099289;28;20035;-94
2022/09/01 09:50:11;;;;;;;4.95;1.20;;;19.60;93.10;;;;;;5098660;28;20187;-94
2022/09/01 09:52:37;;;;;;;2.53;1.13;;;19.90;92.60;;;;;;5102424;28;20123;-94
2022/09/01 09:55:20;;;;;;;4.70;1.30;;;20.20;92.20;;;;;;5099945;28;20433;-95
2022/09/01 09:57:47;;;;;;;7.35;1.27;;;20.50;91.10;;;;;;5124771;28;20032;-93
2022/09/01 10:00:33;;;;;;;5.53;1.10;;;20.80;89.90;;;;;;5105966;28;20016;-96
2022/09/01 10:03:07;;;;;;;6.03;1.23;;;21.00;87.70;;;;;;5106252;28;20055;-96
2022/09/01 10:05:50;;;;;;;4.68;1.10;;;21.20;86.10;;;;;;5100786;28;20118;-93
2022/09/01 10:08:43;;;;;;;4.93;1.00;;;21.30;85.10;;;;;;5104190;28;20023;-95
2022/09/01 10:11:23;;;;;;;3.47;1.30;;;21.20;84.10;;;;;;5101497;28;20055;-95
2022/09/01 10:13:50;;;;;;;5.85;1.42;;;21.20;83.90;;;;;;5107684;28;20024;-96
2022/09/01 10:16:27;;;;;;;4.50;2.08;;;21.00;83.60;;;;;;5104082;28;20488;-96
2022/09/01 10:18:59;;;;;;;7.28;1.10;;;20.90;83.70;;;;;;5106402;28;20024;-96
2022/09/01 10:21:39;;;;;;;8.55;1.48;;;20.90;83.60;;;;;;5102133;28;20027;-93
2022/09/01 10:24:20;;;;;;;6.97;1.25;;;20.90;83.50;;;;;;5101905;28;20028;-95
2022/09/01 10:26:51;;;;;;;2.85;1.10;;;21.00;83.00;;;;;;5101690;28;20028;-94
2022/09/01 10:29:24;;;;;;;7.82;1.30;;;21.20;82.60;;;;;;5102708;28;20069;-95
2022/09/01 10:31:52;;;;;;;2.40;0.80;;;21.50;81.80;;;;;;5102030;28;20032;-94
2022/09/01 10:34:19;;;;;;;6.00;1.25;;;21.70;80.90;;;;;;5102574;28;20028;-94
2022/09/01 10:36:46;;;;;;;7.95;1.55;;;22.00;79.70;;;;;;5099006;28;20036;-95
2022/09/01 10:39:14;;;;;;;5.63;1.10;;;22.30;78.20;;;;;;5098935;28;20030;-93
2022/09/01 10:41:50;;;;;;;12.95;1.23;;;22.40;77.00;;;;;;5097843;28;20028;-96
2022/09/01 10:44:21;;;;;;;5.68;1.27;;;22.50;75.60;;;;;;5098764;28;20110;-93
2022/09/01 10:46:46;;;;;;;;;;;22.40;74.30;;;;;;5099435;28;20050;-92
2022/09/01 10:49:32;;;;;;;5.18;1.13;;;22.30;74.30;;;;;;5097920;28;20352;-94
2022/09/01 10:51:58;;;;;;;4.30;0.85;;;22.30;73.50;;;;;;5097298;28;20028;-95
2022/09/01 10:54:39;;;;;;;2.88;1.00;;;22.20;73.50;;;;;;5098879;28;20028;-94
2022/09/01 10:57:11;;;;;;;5.60;0.90;;;22.00;72.80;;;;;;5101040;28;20036;-91
2022/09/01 10:59:38;;;;;;;7.43;1.23;;;21.90;72.70;;;;;;5098345;28;20026;-94
2022/09/01 11:02:07;;;;;;;3.97;1.10;;;21.70;72.90;;;;;;5098054;28;20080;-96
2022/09/01 11:04:38;;;;;;;4.18;0.90;;;21.50;73.40;;;;;;5098459;28;20457;-93
2022/09/01 11:07:27;;;;;;;5.40;1.05;;;21.70;73.60;;;;;;5098116;28;20431;-96
2022/09/01 11:10:24;;;;;;;5.88;1.63;;;21.80;72.90;;;;;;5097565;28;20540;-94
2022/09/01 11:13:17;;;;;;;6.15;1.63;;;22.10;72.20;;;;;;5097469;28;20083;-96
2022/09/01 11:15:44;;;;;;;3.45;1.70;;;22.40;70.90;;;;;;5097659;28;20043;-94
2022/09/01 11:18:30;;;;;;;4.55;1.10;;;22.70;70.60;;;;;;5096944;28;20051;-94
2022/09/01 11:21:25;;;;;;;4.95;1.13;;;23.10;70.30;;;;;;5099458;28;20472;-94
2022/09/01 11:24:32;;;;;;;9.48;2.10;;;23.60;69.00;;;;;;5099872;28;20034;-94
2022/09/01 11:26:59;;;;;;;3.25;1.25;;;23.90;67.80;;;;;;5069301;28;20315;-95
2022/09/01 11:29:55;;;;;;;5.90;1.40;;;24.20;67.50;;;;;;5099322;28;20149;-92
2022/09/01 11:32:26;;;;;;;3.25;1.30;;;24.40;65.70;;;;;;5108700;28;20038;-92
2022/09/01 11:35:03;;;;;;;7.35;1.30;;;24.40;64.90;;;;;;5102092;28;20026;-93
2022/09/01 11:37:31;;;;;;;5.15;0.93;;;24.40;64.90;;;;;;5098709;28;20028;-92
2022/09/01 11:40:01;;;;;;;9.95;1.20;;;24.40;64.50;;;;;;5096609;28;20043;-90
2022/09/01 11:42:48;;;;;;;5.45;1.20;;;24.30;64.20;;;;;;5096075;28;20072;-90
2022/09/01 11:45:18;;;;;;;7.43;1.20;;;24.30;65.30;;;;;;5082667;28;20477;-90
2022/09/01 11:47:51;;;;;;;3.92;1.10;;;24.50;64.50;;;;;;5099477;28;20051;-90
2022/09/01 11:50:33;;;;;;;4.30;1.13;;;24.50;64.00;;;;;;5097407;28;20083;-89
2022/09/01 11:53:04;;;;;;;4.60;1.25;;;24.50;63.90;;;;;;5097818;28;20031;-89
2022/09/01 11:55:36;;;;;;;1.88;0.90;;;24.50;63.60;;;;;;5105458;28;20035;-91
2022/09/01 11:58:04;;;;;;;2.20;0.75;;;24.70;63.50;;;;;;5089078;28;20503;-91
2022/09/01 12:00:37;;;;;;;3.05;0.80;;;24.90;62.60;;;;;;5079667;28;20066;-92
2022/09/01 12:03:20;;;;;;;3.78;1.10;;;24.90;62.10;;;;;;5098158;28;20027;-91
2022/09/01 12:05:53;;;;;;;6.35;1.02;;;24.70;62.00;;;;;;5076558;28;20104;-91
2022/09/01 12:08:20;;;;;;;7.25;1.10;;;24.40;62.30;;;;;;5093217;28;20469;-91
2022/09/01 12:10:47;;;;;;;3.50;0.90;;;24.40;62.80;;;;;;5094640;28;20454;-92
2022/09/01 12:13:22;;;;;;;3.80;0.98;;;24.60;62.90;;;;;;5099265;28;20051;-91
2022/09/01 12:15:59;;;;;;;8.07;0.88;;;25.00;62.30;;;;;;5099946;28;20484;-90
2022/09/01 12:18:33;;;;;;;5.97;1.00;;;25.20;61.50;;;;;;5096016;28;20102;-92
2022/09/01 12:21:03;;;;;;;4.05;1.00;;;25.30;60.90;;;;;;5095743;28;20502;-90
2022/09/01 12:23:39;;;;;;;11.20;1.00;;;25.40;60.80;;;;;;5095431;28;20024;-92
2022/09/01 12:26:06;;;;;;;2.70;0.85;;;25.40;60.80;;;;;;5093048;28;20032;-91
2022/09/01 12:28:34;;;;;;;4.60;0.90;;;25.40;60.90;;;;;;5095447;28;20180;-91
2022/09/01 12:31:04;;;;;;;5.45;1.00;;;25.20;60.70;;;;;;5096889;28;20473;-91
2022/09/01 12:33:31;;;;;;;4.22;1.15;;;25.10;60.60;;;;;;5096144;28;20055;-91
2022/09/01 12:36:19;;;;;;;6.50;1.70;;;25.20;60.50;;;;;;5095621;28;20039;-93
2022/09/01 12:38:45;;;;;;;4.63;0.95;;;25.10;60.20;;;;;;5095650;28;20036;-90
2022/09/01 12:41:34;;;;;;;5.10;1.20;;;25.00;60.20;;;;;;5113544;28;20031;-90
2022/09/01 12:44:29;;;;;;;6.03;1.52;;;25.10;60.10;;;;;;5096728;28;20031;-93
2022/09/01 12:46:57;;;;;;;2.90;0.90;;;25.10;59.80;;;;;;5104068;28;20058;-94
2022/09/01 12:49:45;;;;;;;3.25;0.90;;;25.20;60.00;;;;;;5105358;28;20047;-90
2022/09/01 12:52:24;;;;;;;2.55;0.88;;;25.20;59.80;;;;;;5108440;28;20043;-94
2022/09/01 12:55:03;;;;;;;7.15;1.15;;;25.30;59.80;;;;;;5107961;28;20027;-93
2022/09/01 12:57:33;;;;;;;8.98;1.30;;;25.60;59.80;;;;;;5101130;28;20123;-94
2022/09/01 13:00:30;;;;;;;8.55;1.75;;;25.90;59.60;;;;;;5100448;28;20080;-94
2022/09/01 13:02:56;;;;;;;5.03;1.15;;;26.20;58.80;;;;;;5119595;28;20031;-92
2022/09/01 13:05:33;;;;;;;4.20;0.90;;;26.20;58.30;;;;;;5096518;28;20119;-94
2022/09/01 13:08:02;;;;;;;5.47;0.70;;;26.00;58.40;;;;;;5101331;28;20016;-93
2022/09/01 13:10:50;;;;;;;4.73;1.10;;;25.60;58.50;;;;;;5107508;28;20047;-95